createdAt,value
2022-11-22T00:00:20.024Z,82.30
2022-11-22T00:02:46.839Z,82.04
2022-11-22T00:05:13.545Z,81.79
2022-11-22T00:07:40.380Z,82.79
2022-11-22T00:10:08.993Z,83.13
2022-11-22T00:12:35.539Z,83.04
2022-11-22T00:15:01.881Z,83.60
2022-11-22T00:17:28.270Z,83.33
2022-11-22T00:19:54.644Z,83.68
2022-11-22T00:22:20.961Z,83.26
2022-11-22T00:24:47.496Z,83.50
2022-11-22T00:27:14.198Z,83.96
2022-11-22T00:29:40.563Z,83.89
2022-11-22T00:32:06.890Z,83.83
2022-11-22T00:34:33.202Z,83.44
2022-11-22T00:36:59.572Z,83.33
2022-11-22T00:39:25.958Z,83.53
2022-11-22T00:41:52.415Z,83.14
2022-11-22T00:44:18.766Z,82.93
2022-11-22T00:46:45.149Z,83.09
2022-11-22T00:49:11.551Z,83.71
2022-11-22T00:51:37.955Z,83.35
2022-11-22T00:54:04.549Z,83.72
2022-11-22T00:56:32.002Z,83.99
2022-11-22T00:58:58.441Z,84.07
2022-11-22T01:01:25.443Z,84.09
2022-11-22T01:03:51.850Z,83.67
2022-11-22T01:06:18.293Z,83.09
2022-11-22T01:08:44.737Z,82.79
2022-11-22T01:11:11.790Z,83.56
2022-11-22T01:13:38.262Z,83.83
2022-11-22T01:16:08.033Z,84.10
2022-11-22T01:18:35.197Z,83.90
2022-11-22T01:21:02.235Z,83.21
2022-11-22T01:23:28.593Z,83.54
2022-11-22T01:25:54.979Z,83.16
2022-11-22T01:28:21.327Z,84.46
2022-11-22T01:30:50.976Z,84.71
2022-11-22T01:33:17.351Z,84.96
2022-11-22T01:35:43.740Z,84.54
2022-11-22T01:38:10.422Z,85.80
2022-11-22T01:40:36.786Z,84.79
2022-11-22T01:43:04.262Z,84.87
2022-11-22T01:45:30.531Z,84.48
2022-11-22T01:48:18.803Z,84.99
2022-11-22T01:50:49.064Z,84.71
2022-11-22T01:53:35.896Z,84.95
2022-11-22T01:56:04.531Z,84.22
2022-11-22T01:58:33.352Z,84.38
2022-11-22T02:01:00.664Z,83.69
2022-11-22T02:03:29.484Z,84.92
2022-11-22T02:05:56.398Z,84.83
2022-11-22T02:08:25.378Z,84.40
2022-11-22T02:10:55.282Z,85.83
2022-11-22T02:13:23.260Z,85.24
2022-11-22T02:15:52.180Z,84.21
2022-11-22T02:18:18.897Z,84.29
2022-11-22T02:20:45.801Z,85.25
2022-11-22T02:23:31.537Z,84.85
2022-11-22T02:26:00.066Z,84.34
2022-11-22T02:28:32.138Z,85.50
2022-11-22T02:30:58.663Z,84.12
2022-11-22T02:33:25.048Z,84.72
2022-11-22T02:35:51.694Z,83.89
2022-11-22T02:38:22.429Z,83.03
2022-11-22T02:41:00.046Z,82.80
2022-11-22T02:43:41.600Z,82.14
2022-11-22T02:46:11.075Z,81.14
2022-11-22T02:48:41.961Z,81.67
2022-11-22T02:51:08.494Z,81.55
2022-11-22T02:53:34.953Z,81.52
2022-11-22T02:56:01.272Z,81.15
2022-11-22T02:58:27.582Z,81.29
2022-11-22T03:00:53.966Z,81.58
2022-11-22T03:03:20.408Z,81.12
2022-11-22T03:05:46.773Z,81.08
2022-11-22T03:08:13.095Z,80.82
2022-11-22T03:10:39.401Z,81.25
2022-11-22T03:13:05.755Z,80.82
2022-11-22T03:15:32.097Z,81.17
2022-11-22T03:18:03.171Z,80.76
2022-11-22T03:20:30.398Z,79.61
2022-11-22T03:22:57.026Z,78.52
2022-11-22T03:25:23.439Z,80.46
2022-11-22T03:27:49.765Z,79.37
2022-11-22T03:30:16.171Z,78.37
2022-11-22T03:32:42.505Z,78.53
2022-11-22T03:35:09.424Z,79.29
2022-11-22T03:37:36.170Z,79.29
2022-11-22T03:40:02.633Z,79.11
2022-11-22T03:42:28.980Z,78.58
2022-11-22T03:44:55.320Z,78.27
2022-11-22T03:47:21.650Z,78.73
2022-11-22T03:49:47.952Z,78.59
2022-11-22T03:52:14.256Z,78.08
2022-11-22T03:54:40.571Z,78.20
2022-11-22T03:57:06.976Z,78.14
2022-11-22T03:59:33.310Z,78.31
2022-11-22T04:01:59.704Z,78.45
2022-11-22T04:04:26.252Z,77.63
2022-11-22T04:06:52.630Z,76.76
2022-11-22T04:09:19.113Z,77.51
2022-11-22T04:11:45.515Z,76.50
2022-11-22T04:14:31.036Z,76.76
2022-11-22T04:16:57.827Z,76.87
2022-11-22T04:19:24.245Z,77.21
2022-11-22T04:21:50.676Z,76.73
2022-11-22T04:24:35.949Z,76.24
2022-11-22T04:27:02.388Z,76.34
2022-11-22T04:29:29.025Z,76.88
2022-11-22T04:32:14.257Z,76.28
2022-11-22T04:34:40.576Z,76.15
2022-11-22T04:37:07.110Z,75.78
2022-11-22T04:39:33.622Z,76.11
2022-11-22T04:42:18.913Z,76.50
2022-11-22T04:44:46.014Z,76.63
2022-11-22T04:47:54.011Z,76.45
2022-11-22T04:50:38.757Z,76.18
2022-11-22T04:53:05.066Z,76.43
2022-11-22T04:55:31.497Z,77.10
2022-11-22T04:58:00.311Z,76.29
2022-11-22T05:00:30.074Z,76.46
2022-11-22T05:02:57.059Z,76.12
2022-11-22T05:05:24.878Z,76.34
2022-11-22T05:07:51.322Z,75.69
2022-11-22T05:10:22.801Z,76.04
2022-11-22T05:12:52.427Z,76.19
2022-11-22T05:15:18.789Z,75.88
2022-11-22T05:17:45.138Z,75.87
2022-11-22T05:20:11.681Z,75.84
2022-11-22T05:22:56.502Z,76.00
2022-11-22T05:25:25.698Z,75.50
2022-11-22T05:27:55.528Z,75.46
2022-11-22T05:30:22.256Z,75.43
2022-11-22T05:32:48.594Z,75.44
2022-11-22T05:35:15.033Z,74.94
2022-11-22T05:37:41.353Z,75.02
2022-11-22T05:40:08.407Z,74.69
2022-11-22T05:42:35.546Z,74.61
2022-11-22T05:45:01.893Z,74.47
2022-11-22T05:47:28.212Z,74.47
2022-11-22T05:49:54.551Z,74.37
2022-11-22T05:52:20.852Z,74.59
2022-11-22T05:54:47.190Z,74.78
2022-11-22T05:57:13.541Z,74.71
2022-11-22T05:59:43.910Z,75.07
2022-11-22T06:02:10.912Z,74.78
2022-11-22T06:04:37.419Z,74.72
2022-11-22T06:07:09.647Z,74.34
2022-11-22T06:09:36.613Z,74.58
2022-11-22T06:12:03.065Z,73.87
2022-11-22T06:14:29.401Z,73.95
2022-11-22T06:16:55.701Z,74.43
2022-11-22T06:19:22.129Z,74.25
2022-11-22T06:21:48.582Z,74.35
2022-11-22T06:24:15.126Z,74.11
2022-11-22T06:26:41.454Z,74.45
2022-11-22T06:29:07.816Z,73.78
2022-11-22T06:31:41.447Z,73.61
2022-11-22T06:34:07.795Z,73.90
2022-11-22T06:36:34.979Z,73.59
2022-11-22T06:39:04.433Z,73.73
2022-11-22T06:41:36.142Z,74.11
2022-11-22T06:44:09.420Z,73.53
2022-11-22T06:46:36.903Z,73.11
2022-11-22T06:49:06.328Z,73.11
2022-11-22T06:51:33.193Z,73.13
2022-11-22T06:54:00.107Z,72.92
2022-11-22T06:56:37.405Z,73.15
2022-11-22T06:59:05.372Z,73.16
2022-11-22T07:01:32.855Z,73.28
2022-11-22T07:04:00.190Z,73.21
2022-11-22T07:06:35.057Z,73.33
2022-11-22T07:09:03.733Z,73.18
2022-11-22T07:11:32.033Z,72.68
2022-11-22T07:14:07.025Z,73.32
2022-11-22T07:16:35.811Z,72.92
2022-11-22T07:19:02.202Z,72.75
2022-11-22T07:21:28.533Z,72.92
2022-11-22T07:23:55.837Z,72.39
2022-11-22T07:26:25.232Z,72.47
2022-11-22T07:28:52.025Z,72.43
2022-11-22T07:31:18.771Z,72.49
2022-11-22T07:33:45.717Z,71.89
2022-11-22T07:36:17.584Z,72.34
2022-11-22T07:38:45.404Z,71.74
2022-11-22T07:41:11.770Z,71.84
2022-11-22T07:43:38.096Z,71.57
2022-11-22T07:46:07.822Z,72.02
2022-11-22T07:48:34.539Z,71.46
2022-11-22T07:51:07.638Z,71.47
2022-11-22T07:53:35.240Z,70.78
2022-11-22T07:56:05.246Z,71.08
2022-11-22T07:58:32.527Z,70.83
2022-11-22T08:01:03.831Z,71.27
2022-11-22T08:03:30.299Z,71.04
2022-11-22T08:06:04.595Z,70.50
2022-11-22T08:08:31.356Z,70.71
2022-11-22T08:10:57.682Z,70.89
2022-11-22T08:13:27.847Z,70.52
2022-11-22T08:15:55.547Z,70.07
2022-11-22T08:18:23.961Z,69.80
2022-11-22T08:20:50.266Z,69.70
2022-11-22T08:23:16.590Z,70.19
2022-11-22T08:25:42.960Z,69.99
2022-11-22T08:28:09.315Z,70.04
2022-11-22T08:30:35.659Z,69.63
2022-11-22T08:33:01.996Z,70.25
2022-11-22T08:35:28.983Z,69.45
2022-11-22T08:37:57.109Z,69.35
2022-11-22T08:40:23.451Z,69.52
2022-11-22T08:42:49.852Z,69.55
2022-11-22T08:45:16.816Z,69.41
2022-11-22T08:47:47.127Z,69.32
2022-11-22T08:50:13.495Z,69.23
2022-11-22T08:52:39.812Z,69.28
2022-11-22T08:55:06.742Z,69.42
2022-11-22T08:57:33.069Z,69.32
2022-11-22T08:59:59.399Z,69.18
2022-11-22T09:02:26.080Z,69.26
2022-11-22T09:04:52.855Z,69.73
2022-11-22T09:10:07.970Z,68.97
2022-11-22T09:12:34.485Z,68.57
2022-11-22T09:15:00.799Z,68.46
2022-11-22T09:17:27.118Z,68.59
2022-11-22T09:19:53.452Z,68.70
2022-11-22T09:22:22.804Z,68.52
2022-11-22T09:24:51.764Z,68.38
2022-11-22T09:27:18.080Z,68.23
2022-11-22T09:29:44.690Z,68.01
2022-11-22T09:32:11.295Z,67.92
2022-11-22T09:34:38.022Z,68.42
2022-11-22T09:37:04.943Z,68.77
2022-11-22T09:39:31.517Z,68.54
2022-11-22T09:42:22.894Z,67.56
2022-11-22T09:45:16.985Z,68.14
2022-11-22T09:47:55.297Z,67.57
2022-11-22T09:50:27.663Z,67.07
2022-11-22T09:53:00.645Z,67.09
2022-11-22T09:55:38.027Z,66.74
2022-11-22T09:58:30.732Z,68.09
2022-11-22T10:01:18.223Z,67.92
2022-11-22T10:03:50.773Z,67.46
2022-11-22T10:06:23.817Z,66.08
2022-11-22T10:09:03.014Z,66.43
2022-11-22T10:11:36.841Z,65.80
2022-11-22T10:14:14.694Z,64.86
2022-11-22T10:16:55.630Z,64.54
2022-11-22T10:19:50.417Z,64.09
2022-11-22T10:22:16.982Z,64.74
2022-11-22T10:24:43.779Z,63.94
2022-11-22T10:27:16.183Z,64.30
2022-11-22T10:29:45.332Z,64.34
2022-11-22T10:32:20.316Z,65.39
2022-11-22T10:35:04.953Z,64.32
2022-11-22T10:37:54.299Z,63.98
2022-11-22T10:40:20.846Z,63.44
2022-11-22T10:43:11.944Z,63.24
2022-11-22T10:45:49.759Z,63.14
2022-11-22T10:48:49.176Z,62.87
2022-11-22T10:51:23.528Z,62.40
2022-11-22T10:53:49.756Z,62.83
2022-11-22T10:56:34.848Z,63.31
2022-11-22T10:59:15.237Z,63.26
2022-11-22T11:01:58.642Z,63.13
2022-11-22T11:04:31.113Z,63.62
2022-11-22T11:07:16.202Z,64.70
2022-11-22T11:12:45.136Z,64.52
2022-11-22T11:15:18.161Z,64.74
2022-11-22T11:17:50.021Z,64.41
2022-11-22T11:20:24.542Z,64.26
2022-11-22T11:23:13.617Z,63.84
2022-11-22T11:25:43.311Z,63.31
2022-11-22T11:28:20.922Z,63.31
2022-11-22T11:31:01.762Z,63.40
2022-11-22T11:33:34.845Z,63.06
2022-11-22T11:36:17.317Z,63.94
2022-11-22T11:38:43.628Z,62.83
2022-11-22T11:41:29.061Z,62.90
2022-11-22T11:44:04.075Z,62.92
2022-11-22T11:46:36.573Z,63.22
2022-11-22T11:49:10.667Z,62.71
2022-11-22T11:51:42.809Z,62.66
2022-11-22T11:54:20.490Z,62.62
2022-11-22T11:56:59.281Z,61.37
2022-11-22T11:59:37.742Z,62.67
2022-11-22T12:02:43.153Z,63.45
2022-11-22T12:05:12.602Z,62.69
2022-11-22T12:07:43.648Z,62.77
2022-11-22T12:10:36.205Z,63.24
2022-11-22T12:13:21.418Z,62.88
2022-11-22T12:16:09.273Z,63.29
2022-11-22T12:18:59.540Z,62.66
2022-11-22T12:21:25.814Z,62.76
2022-11-22T12:24:26.603Z,62.71
2022-11-22T12:26:46.965Z,61.97
2022-11-22T12:29:15.386Z,62.79
2022-11-22T12:32:04.710Z,62.26
2022-11-22T12:34:57.011Z,62.62
2022-11-22T12:37:44.069Z,62.44
2022-11-22T12:40:28.423Z,62.42
2022-11-22T12:43:03.645Z,62.54
2022-11-22T12:45:35.699Z,62.47
2022-11-22T12:48:07.131Z,62.93
2022-11-22T12:50:41.403Z,63.27
2022-11-22T12:53:12.269Z,63.13
2022-11-22T12:55:58.205Z,62.79
2022-11-22T12:58:32.256Z,62.84
2022-11-22T13:01:24.569Z,63.22
2022-11-22T13:03:57.921Z,63.27
2022-11-22T13:06:28.064Z,62.93
2022-11-22T13:09:06.941Z,62.81
2022-11-22T13:11:39.508Z,63.24
2022-11-22T13:14:30.589Z,63.02
2022-11-22T13:16:58.542Z,62.42
2022-11-22T13:19:26.989Z,62.87
2022-11-22T13:22:15.220Z,62.73
2022-11-22T13:24:53.886Z,61.99
2022-11-22T13:27:32.396Z,61.77
2022-11-22T13:30:01.533Z,62.25
2022-11-22T13:32:35.931Z,62.02
2022-11-22T13:35:04.704Z,62.35
2022-11-22T13:37:36.533Z,63.28
2022-11-22T13:40:21.470Z,62.31
2022-11-22T13:42:47.841Z,62.66
2022-11-22T13:45:24.100Z,62.35
2022-11-22T13:47:51.129Z,63.07
2022-11-22T13:50:36.292Z,62.59
2022-11-22T13:53:23.605Z,62.63
2022-11-22T13:55:50.536Z,62.54
2022-11-22T13:58:26.483Z,62.85
2022-11-22T14:00:55.791Z,63.01
2022-11-22T14:03:34.867Z,63.14
2022-11-22T14:06:16.030Z,63.01
2022-11-22T14:08:43.833Z,62.78
2022-11-22T14:11:26.584Z,62.51
2022-11-22T14:14:03.359Z,62.50
2022-11-22T14:16:43.270Z,63.55
2022-11-22T14:19:45.341Z,62.55
2022-11-22T14:22:33.325Z,62.56
2022-11-22T14:25:17.497Z,63.27
2022-11-22T14:27:56.470Z,63.37
2022-11-22T14:30:40.435Z,63.57
2022-11-22T14:33:17.063Z,63.78
2022-11-22T14:36:09.431Z,64.41
2022-11-22T14:38:45.271Z,64.02
2022-11-22T14:41:39.670Z,64.21
2022-11-22T14:44:17.934Z,63.78
2022-11-22T14:47:11.825Z,64.44
2022-11-22T14:49:49.563Z,64.33
2022-11-22T14:52:24.255Z,64.27
2022-11-22T14:54:56.237Z,64.52
2022-11-22T14:57:26.238Z,64.19
2022-11-22T15:00:08.948Z,65.28
2022-11-22T15:02:53.086Z,65.12
2022-11-22T15:09:12.946Z,66.45
2022-11-22T15:09:15.782Z,65.85
2022-11-22T15:12:24.449Z,66.18
2022-11-22T15:59:41.335Z,73.65
2022-11-22T16:02:16.094Z,73.37
2022-11-22T16:06:04.368Z,75.34
2022-11-22T16:07:47.276Z,74.81
2022-11-22T16:10:24.370Z,74.69
2022-11-22T16:12:52.413Z,75.37
2022-11-22T16:15:36.116Z,75.18
2022-11-22T16:18:16.668Z,75.29
2022-11-22T16:20:58.975Z,75.52
2022-11-22T16:23:27.047Z,76.65
2022-11-22T16:25:57.120Z,78.06
2022-11-22T16:28:30.808Z,77.02
2022-11-22T16:31:00.248Z,76.36
2022-11-22T16:33:27.138Z,76.71
2022-11-22T16:35:55.013Z,76.40
2022-11-22T16:38:22.389Z,76.72
2022-11-22T16:40:48.994Z,76.20
2022-11-22T16:43:19.483Z,77.30
2022-11-22T16:45:45.870Z,77.59
2022-11-22T16:48:31.909Z,76.86
2022-11-22T16:51:04.790Z,75.75
2022-11-22T16:53:42.531Z,77.79
2022-11-22T16:56:24.086Z,76.70
2022-11-22T16:58:52.011Z,77.14
2022-11-22T17:01:22.227Z,76.80
2022-11-22T17:03:51.833Z,76.22
2022-11-22T17:06:21.336Z,76.21
2022-11-22T17:08:49.602Z,75.71
2022-11-22T17:11:24.021Z,76.20
2022-11-22T17:13:50.738Z,76.25
2022-11-22T17:16:19.906Z,75.88
2022-11-22T17:18:47.998Z,76.26
2022-11-22T17:21:31.307Z,76.14
2022-11-22T17:24:02.798Z,76.26
2022-11-22T17:26:29.496Z,76.15
2022-11-22T17:28:56.236Z,76.57
2022-11-22T17:31:23.175Z,75.86
2022-11-22T17:33:51.340Z,76.22
2022-11-22T17:36:34.798Z,75.63
2022-11-22T17:39:06.584Z,76.33
2022-11-22T17:41:33.660Z,76.35
2022-11-22T17:44:01.178Z,76.90
2022-11-22T17:46:29.458Z,76.55
2022-11-22T17:48:58.726Z,77.55
2022-11-22T17:51:26.766Z,77.79
2022-11-22T17:53:53.831Z,78.34
2022-11-22T17:56:20.772Z,78.41
2022-11-22T17:58:47.575Z,78.42
2022-11-22T18:01:16.245Z,78.54
2022-11-22T18:03:43.080Z,78.39
2022-11-22T18:06:11.667Z,78.50
2022-11-22T18:08:41.384Z,78.26
2022-11-22T18:11:11.757Z,78.16
2022-11-22T18:13:40.027Z,78.24
2022-11-22T18:16:11.951Z,78.32
2022-11-22T18:18:57.533Z,78.84
2022-11-22T18:21:26.032Z,78.55
2022-11-22T18:23:52.748Z,78.32
2022-11-22T18:31:53.465Z,79.30
2022-11-22T18:34:21.048Z,78.50
2022-11-22T18:36:57.677Z,78.10
2022-11-22T18:39:30.904Z,77.99
2022-11-22T18:41:57.664Z,77.48
2022-11-22T18:44:24.018Z,77.82
2022-11-22T18:46:50.614Z,77.77
2022-11-22T18:49:17.124Z,77.30
2022-11-22T18:51:43.719Z,77.28
2022-11-22T18:54:10.617Z,77.27
2022-11-22T18:56:39.857Z,77.15
2022-11-22T18:59:07.897Z,77.33
2022-11-22T19:01:34.827Z,77.78
2022-11-22T19:04:03.088Z,77.10
2022-11-22T19:06:30.427Z,76.98
2022-11-22T19:08:57.257Z,76.91
2022-11-22T19:11:23.640Z,76.42
2022-11-22T19:13:50.103Z,76.18
2022-11-22T19:16:22.018Z,75.92
2022-11-22T19:18:51.867Z,75.76
2022-11-22T19:21:21.218Z,75.56
2022-11-22T19:23:49.539Z,74.93
2022-11-22T19:26:20.513Z,74.69
2022-11-22T19:28:48.557Z,74.52
2022-11-22T19:31:19.998Z,75.02
2022-11-22T19:33:46.841Z,74.14
2022-11-22T19:36:18.186Z,73.55
2022-11-22T19:38:45.529Z,73.71
2022-11-22T19:41:14.062Z,73.76
2022-11-22T19:43:40.623Z,73.46
2022-11-22T19:46:08.641Z,74.04
2022-11-22T19:48:40.063Z,72.96
2022-11-22T19:51:16.513Z,73.28
2022-11-22T19:53:43.209Z,72.84
2022-11-22T19:56:14.957Z,72.83
2022-11-22T19:58:42.656Z,72.52
2022-11-22T20:01:21.764Z,72.69
2022-11-22T20:03:52.741Z,72.93
2022-11-22T20:06:19.515Z,72.39
2022-11-22T20:08:46.178Z,72.45
2022-11-22T20:11:14.624Z,72.18
2022-11-22T20:13:43.397Z,72.89
2022-11-22T20:16:27.533Z,73.61
2022-11-22T20:18:54.654Z,73.75
2022-11-22T20:21:22.488Z,73.37
2022-11-22T20:23:52.377Z,74.06
2022-11-22T20:26:36.951Z,74.24
2022-11-22T20:29:07.264Z,74.21
2022-11-22T20:31:35.949Z,73.71
2022-11-22T20:34:02.510Z,73.44
2022-11-22T20:36:31.381Z,73.61
2022-11-22T20:38:58.843Z,74.57
2022-11-22T20:41:28.152Z,74.36
2022-11-22T20:43:56.621Z,73.80
2022-11-22T20:46:25.592Z,75.63
2022-11-22T20:48:53.157Z,75.28
2022-11-22T20:51:22.940Z,75.26
2022-11-22T20:53:49.804Z,75.05
2022-11-22T20:56:17.040Z,75.14
2022-11-22T20:58:44.135Z,74.81
2022-11-22T21:01:16.384Z,74.36
2022-11-22T21:03:42.981Z,73.84
2022-11-22T21:06:11.414Z,74.22
2022-11-22T21:08:38.218Z,74.10
2022-11-22T21:11:07.046Z,74.16
2022-11-22T21:13:34.307Z,74.69
2022-11-22T21:16:20.654Z,74.09
2022-11-22T21:18:51.408Z,73.69
2022-11-22T21:21:22.540Z,73.73
2022-11-22T21:23:54.426Z,74.92
2022-11-22T21:26:22.182Z,76.71
2022-11-22T21:28:48.913Z,77.43
2022-11-22T21:31:15.628Z,79.10
2022-11-22T21:33:42.611Z,79.09
2022-11-22T21:36:09.568Z,78.27
2022-11-22T21:38:38.225Z,78.66
2022-11-22T21:41:37.745Z,77.45
2022-11-22T21:43:55.697Z,77.27
2022-11-22T21:46:25.972Z,78.06
2022-11-22T21:48:52.481Z,78.26
2022-11-22T21:51:18.887Z,78.15
2022-11-22T21:53:45.418Z,76.92
2022-11-22T21:56:11.835Z,77.67
2022-11-22T21:58:38.202Z,77.90
2022-11-22T22:01:13.591Z,77.43
2022-11-22T22:03:40.599Z,77.19
2022-11-22T22:06:07.544Z,77.13
2022-11-22T22:08:34.239Z,77.12
2022-11-22T22:11:02.418Z,76.68
2022-11-22T22:13:30.651Z,77.54
2022-11-22T22:15:58.903Z,77.83
2022-11-22T22:18:33.549Z,78.47
2022-11-22T22:21:02.672Z,77.61
2022-11-22T22:23:29.209Z,77.30
2022-11-22T22:26:04.343Z,79.30
2022-11-22T22:28:33.819Z,77.72
2022-11-22T22:31:12.262Z,77.36
2022-11-22T22:33:40.856Z,77.56
2022-11-22T22:36:09.485Z,77.33
2022-11-22T22:38:36.156Z,78.03
2022-11-22T22:41:03.999Z,78.28
2022-11-22T22:43:35.681Z,78.93
2022-11-22T22:46:13.748Z,78.57
2022-11-22T22:48:41.137Z,77.82
2022-11-22T22:51:19.570Z,78.63
2022-11-22T22:53:47.185Z,77.71
2022-11-22T22:56:15.214Z,77.82
2022-11-22T22:58:41.969Z,77.24
2022-11-22T23:01:12.725Z,76.88
2022-11-22T23:03:39.511Z,76.46
2022-11-22T23:06:11.323Z,75.79
2022-11-22T23:08:39.314Z,76.25
2022-11-22T23:11:08.332Z,75.26
2022-11-22T23:13:36.910Z,75.63
2022-11-22T23:16:08.749Z,76.12
2022-11-22T23:18:38.782Z,76.22
2022-11-22T23:21:07.301Z,75.95
2022-11-22T23:23:33.804Z,76.23
2022-11-22T23:26:09.618Z,76.01
2022-11-22T23:28:36.463Z,76.20
2022-11-22T23:31:11.635Z,74.61
2022-11-22T23:33:40.998Z,75.90
2022-11-22T23:36:10.397Z,76.14
2022-11-22T23:38:37.513Z,74.98
2022-11-22T23:41:04.289Z,76.26
2022-11-22T23:43:30.990Z,74.96
2022-11-22T23:45:58.749Z,75.93
2022-11-22T23:48:25.961Z,76.31
2022-11-22T23:50:52.394Z,75.22
2022-11-22T23:53:19.065Z,74.83
2022-11-22T23:55:45.480Z,75.49
2022-11-22T23:58:11.887Z,74.81
